Time;durP1;ratioP1;P1;durP2;ratioP2;P2;SDS_P1;SDS_P2;PMS_P1;PMS_P2;Temp;Humidity;BMP_temperature;BMP_pressure;BME280_temperature;BME280_humidity;BME280_pressure;Samples;Min_cycle;Max_cycle;Signal;HPM_P1;HPM_P2
2023/07/28 00:00:53;;;;;;;;;;;;;;;24.43;47.11;100307.00;5061641;28;20416;-83
2023/07/28 00:03:19;;;;;;;;;;;;;;;24.44;46.98;100311.31;5063646;28;20324;-84
2023/07/28 00:05:44;;;;;;;;;;;;;;;24.40;47.25;100312.00;5063751;28;20312;-84
2023/07/28 00:08:09;;;;;;;;;;;;;;;24.41;47.13;100296.38;5065908;28;20402;-84
2023/07/28 00:10:39;;;;;;;;;;;;;;;24.40;47.24;100298.31;5070169;28;19920;-83
2023/07/28 00:13:04;;;;;;;;;;;;;;;24.40;47.37;100292.84;5067289;28;19916;-84
2023/07/28 00:15:30;;;;;;;;;;;;;;;24.44;47.35;100281.19;5067085;28;20411;-84
2023/07/28 00:17:56;;;;;;;;;;;;;;;24.46;47.29;100284.38;5066047;28;20385;-84
2023/07/28 00:20:21;;;;;;;;;;;;;;;24.47;47.08;100281.28;5070398;28;20346;-84
2023/07/28 00:22:46;;;;;;;;;;;;;;;24.50;47.33;100271.56;5066950;28;20210;-83
2023/07/28 00:25:11;;;;;;;;;;;;;;;24.54;47.00;100275.19;5064804;28;19920;-84
2023/07/28 00:27:37;;;;;;;;;;;;;;;24.55;47.16;100271.28;5067930;28;20394;-84
2023/07/28 00:30:02;;;;;;;;;;;;;;;24.54;47.18;100261.50;5066864;28;20442;-83
2023/07/28 00:32:27;;;;;;;;;;;;;;;24.52;47.03;100267.31;5069125;28;20380;-84
2023/07/28 00:34:53;;;;;;;;;;;;;;;24.50;47.37;100266.09;5067301;28;19916;-83
2023/07/28 00:37:18;;;;;;;;;;;;;;;24.45;47.46;100269.09;5066432;28;19952;-83
2023/07/28 00:39:44;;;;;;;;;;;;;;;24.40;47.50;100264.66;5067017;28;19920;-84
2023/07/28 00:42:09;;;;;;;;;;;;;;;24.37;47.78;100270.84;5070171;28;20384;-83
2023/07/28 00:44:34;;;;;;;;;;;;;;;24.35;47.77;100268.47;5068062;28;19961;-83
2023/07/28 00:47:00;;;;;;;;;;;;;;;24.38;47.74;100264.22;5066050;28;19930;-83
2023/07/28 00:49:25;;;;;;;;;;;;;;;24.40;47.71;100262.72;5067037;28;20414;-83
2023/07/28 00:51:51;;;;;;;;;;;;;;;24.39;47.66;100263.88;5065933;28;19928;-83
2023/07/28 00:54:17;;;;;;;;;;;;;;;24.39;47.84;100263.06;5067689;28;20060;-83
2023/07/28 00:56:42;;;;;;;;;;;;;;;24.38;47.67;100256.00;5065516;28;20402;-83
2023/07/28 00:59:07;;;;;;;;;;;;;;;24.36;47.89;100256.34;5062378;28;19927;-83
2023/07/28 01:01:33;;;;;;;;;;;;;;;24.37;47.92;100254.41;5071058;28;20168;-83
2023/07/28 01:03:58;;;;;;;;;;;;;;;24.38;48.00;100256.78;5066909;28;20043;-83
2023/07/28 01:06:33;;;;;;;;;;;;;;;24.39;48.09;100249.38;5065356;28;20360;-83
2023/07/28 01:09:03;;;;;;;;;;;;;;;24.40;48.01;100243.53;5066077;28;19950;-84
2023/07/28 01:11:28;;;;;;;;;;;;;;;24.43;47.99;100241.28;5062480;28;20066;-83
2023/07/28 01:13:54;;;;;;;;;;;;;;;24.44;47.97;100232.72;5063336;28;20015;-83
2023/07/28 01:16:19;;;;;;;;;;;;;;;24.46;47.97;100226.88;5068675;28;19962;-83
2023/07/28 01:18:44;;;;;;;;;;;;;;;24.47;47.92;100231.19;5068419;28;19977;-83
2023/07/28 01:21:17;;;;;;;;;;;;;;;24.48;47.97;100222.63;5065234;28;20014;-83
2023/07/28 01:24:05;;;;;;;;;;;;;;;24.49;48.09;100218.75;5064899;28;19916;-83
2023/07/28 01:26:38;;;;;;;;;;;;;;;24.47;48.14;100214.78;5065454;28;19924;-83
2023/07/28 01:29:04;;;;;;;;;;;;;;;24.48;48.23;100205.41;5063605;28;19923;-82
2023/07/28 01:31:30;;;;;;;;;;;;;;;24.48;48.09;100199.94;5069507;28;19966;-83
2023/07/28 01:33:55;;;;;;;;;;;;;;;24.50;48.15;100197.63;5066523;28;20335;-83
2023/07/28 01:36:21;;;;;;;;;;;;;;;24.52;48.23;100203.53;5062991;28;20312;-83
2023/07/28 01:38:46;;;;;;;;;;;;;;;24.52;47.89;100204.34;5061776;28;20284;-83
2023/07/28 01:41:11;;;;;;;;;;;;;;;24.53;48.13;100197.72;5066508;28;19927;-83
2023/07/28 01:43:37;;;;;;;;;;;;;;;24.54;48.12;100204.78;5065773;28;20351;-83
2023/07/28 01:46:02;;;;;;;;;;;;;;;24.54;48.11;100190.28;5066181;28;20367;-83
2023/07/28 01:48:27;;;;;;;;;;;;;;;24.54;48.18;100198.50;5063556;28;20035;-83
2023/07/28 01:50:53;;;;;;;;;;;;;;;24.54;48.12;100193.03;5061214;28;20363;-83
2023/07/28 01:53:18;;;;;;;;;;;;;;;24.55;48.22;100202.81;5064790;28;20427;-83
2023/07/28 01:55:43;;;;;;;;;;;;;;;24.54;48.30;100198.50;5062249;28;19920;-83
2023/07/28 01:58:09;;;;;;;;;;;;;;;24.51;48.24;100189.06;5064923;28;19927;-83
2023/07/28 02:00:35;;;;;;;;;;;;;;;24.52;48.31;100198.06;5062893;28;19917;-84
2023/07/28 02:03:02;;;;;;;;;;;;;;;24.52;48.43;100193.38;5060998;28;19963;-84
2023/07/28 02:05:27;;;;;;;;;;;;;;;24.52;48.33;100189.84;5066554;28;20007;-84
2023/07/28 02:07:53;;;;;;;;;;;;;;;24.52;48.28;100185.16;5061232;28;20336;-84
2023/07/28 02:10:18;;;;;;;;;;;;;;;24.53;48.41;100186.75;5063113;28;19920;-84
2023/07/28 02:12:44;;;;;;;;;;;;;;;24.54;48.40;100182.06;5069007;28;19939;-84
2023/07/28 02:15:09;;;;;;;;;;;;;;;24.52;48.35;100182.44;5066068;28;20388;-84
2023/07/28 02:17:34;;;;;;;;;;;;;;;24.50;48.41;100178.47;5064057;28;20392;-84
2023/07/28 02:20:02;;;;;;;;;;;;;;;24.52;48.35;100170.69;5060670;28;19948;-84
2023/07/28 02:22:27;;;;;;;;;;;;;;;24.52;48.54;100170.69;5057320;28;20015;-84
2023/07/28 02:24:53;;;;;;;;;;;;;;;24.51;48.46;100169.88;5068290;28;20348;-84
2023/07/28 02:27:18;;;;;;;;;;;;;;;24.51;48.51;100169.09;5063353;28;19969;-84
2023/07/28 02:29:44;;;;;;;;;;;;;;;24.50;48.58;100173.78;5066080;28;20087;-83
2023/07/28 02:32:10;;;;;;;;;;;;;;;24.46;48.71;100170.16;5066693;28;19940;-84
2023/07/28 02:34:35;;;;;;;;;;;;;;;24.44;48.73;100172.47;5057388;28;19963;-83
2023/07/28 02:37:00;;;;;;;;;;;;;;;24.45;48.79;100173.25;5056566;28;20411;-83
2023/07/28 02:39:26;;;;;;;;;;;;;;;24.46;48.67;100172.09;5055945;28;19928;-84
2023/07/28 02:41:51;;;;;;;;;;;;;;;24.46;48.84;100172.91;5061555;28;19933;-84
2023/07/28 02:44:16;;;;;;;;;;;;;;;24.47;48.79;100176.44;5066223;28;19973;-83
2023/07/28 02:46:42;;;;;;;;;;;;;;;24.47;48.73;100171.75;5066123;28;20011;-83
2023/07/28 02:49:07;;;;;;;;;;;;;;;24.47;48.74;100168.22;5065415;28;20007;-83
2023/07/28 02:51:34;;;;;;;;;;;;;;;24.46;48.73;100161.94;5061842;28;19917;-83
2023/07/28 02:53:59;;;;;;;;;;;;;;;24.47;49.01;100166.28;5058036;28;19921;-83
2023/07/28 02:56:24;;;;;;;;;;;;;;;24.47;48.89;100155.31;5068696;28;20276;-83
2023/07/28 02:58:50;;;;;;;;;;;;;;;24.49;48.88;100135.78;5062915;28;20017;-84
2023/07/28 03:01:15;;;;;;;;;;;;;;;24.50;48.79;100129.97;5064311;28;20859;-83
2023/07/28 03:03:41;;;;;;;;;;;;;;;24.50;48.79;100105.31;5065843;28;20362;-83
2023/07/28 03:06:06;;;;;;;;;;;;;;;24.50;48.87;100099.03;5065435;28;20270;-84
2023/07/28 03:08:31;;;;;;;;;;;;;;;24.48;48.88;100106.81;5058405;28;19942;-83
2023/07/28 03:10:57;;;;;;;;;;;;;;;24.46;48.95;100123.63;5060176;28;19974;-83
2023/07/28 03:13:22;;;;;;;;;;;;;;;24.43;49.08;100127.06;5065184;28;19963;-84
2023/07/28 03:15:48;;;;;;;;;;;;;;;24.37;49.16;100140.22;5062480;28;20372;-83
2023/07/28 03:18:13;;;;;;;;;;;;;;;24.36;49.24;100149.59;5064128;28;19927;-83
2023/07/28 03:20:38;;;;;;;;;;;;;;;24.39;49.33;100148.06;5059083;28;19917;-83
2023/07/28 03:23:04;;;;;;;;;;;;;;;24.41;49.30;100154.78;5059240;28;19917;-83
2023/07/28 03:25:29;;;;;;;;;;;;;;;24.47;49.30;100155.31;5065822;28;19924;-83
2023/07/28 03:27:54;;;;;;;;;;;;;;;24.48;49.23;100156.13;5064972;28;19993;-83
2023/07/28 03:30:20;;;;;;;;;;;;;;;24.50;49.35;100142.84;5064130;28;19920;-83
2023/07/28 03:32:45;;;;;;;;;;;;;;;24.51;49.36;100139.75;5062990;28;19952;-83
2023/07/28 03:35:10;;;;;;;;;;;;;;;24.55;49.29;100134.34;5064000;28;20011;-83
2023/07/28 03:37:35;;;;;;;;;;;;;;;24.57;49.39;100137.53;5065087;28;19917;-83
2023/07/28 03:40:01;;;;;;;;;;;;;;;24.58;49.27;100123.47;5065051;28;19917;-83
2023/07/28 03:42:26;;;;;;;;;;;;;;;24.59;49.42;100135.22;5070712;28;19917;-83
2023/07/28 03:44:52;;;;;;;;;;;;;;;24.61;49.32;100138.44;5064702;28;20774;-83
2023/07/28 03:47:17;;;;;;;;;;;;;;;24.63;49.30;100141.59;5068426;28;19967;-83
2023/07/28 03:49:42;;;;;;;;;;;;;;;24.64;49.53;100137.72;5068066;28;19917;-83
2023/07/28 03:52:07;;;;;;;;;;;;;;;24.67;49.33;100137.00;5069271;28;19921;-83
2023/07/28 03:54:33;;;;;;;;;;;;;;;24.67;49.34;100137.78;5067523;28;19920;-83
2023/07/28 03:56:58;;;;;;;;;;;;;;;24.65;49.19;100136.56;5069183;28;19967;-83
2023/07/28 03:59:23;;;;;;;;;;;;;;;24.62;49.47;100137.28;5070409;28;20363;-83
2023/07/28 04:01:49;;;;;;;;;;;;;;;24.60;49.57;100139.59;5062082;28;20531;-83
2023/07/28 04:04:14;;;;;;;;;;;;;;;24.63;49.55;100141.59;5068690;28;20667;-83
2023/07/28 04:06:46;;;;;;;;;;;;;;;24.63;49.56;100147.09;5071113;28;19974;-83
2023/07/28 04:09:13;;;;;;;;;;;;;;;24.64;49.76;100146.72;5070111;28;19927;-83
2023/07/28 04:11:38;;;;;;;;;;;;;;;24.65;49.61;100147.50;5070946;28;19928;-83
2023/07/28 04:14:04;;;;;;;;;;;;;;;24.64;49.80;100141.25;5068651;28;19916;-83
2023/07/28 04:16:29;;;;;;;;;;;;;;;24.66;49.67;100144.41;5064181;28;19970;-83
2023/07/28 04:18:55;;;;;;;;;;;;;;;24.70;49.59;100141.75;5067906;28;20002;-83
2023/07/28 04:21:20;;;;;;;;;;;;;;;24.70;49.68;100144.50;5066715;28;19920;-83
2023/07/28 04:23:46;;;;;;;;;;;;;;;24.71;49.74;100137.84;5063552;28;19927;-84
2023/07/28 04:26:11;;;;;;;;;;;;;;;24.70;49.82;100128.06;5068661;28;19916;-84
2023/07/28 04:28:36;;;;;;;;;;;;;;;24.68;49.98;100128.41;5068257;28;19963;-84
2023/07/28 04:31:02;;;;;;;;;;;;;;;24.70;49.91;100126.09;5061913;28;20317;-83
2023/07/28 04:33:28;;;;;;;;;;;;;;;24.69;50.00;100132.75;5068538;28;19916;-84
2023/07/28 04:35:53;;;;;;;;;;;;;;;24.71;50.03;100129.63;5066940;28;20380;-83
2023/07/28 04:38:18;;;;;;;;;;;;;;;24.73;50.29;100132.81;5063455;28;19931;-84
2023/07/28 04:40:44;;;;;;;;;;;;;;;24.76;50.06;100134.03;5068963;28;20285;-84
2023/07/28 04:43:09;;;;;;;;;;;;;;;24.76;50.13;100137.56;5063783;28;20403;-84
2023/07/28 04:45:34;;;;;;;;;;;;;;;24.78;50.01;100137.25;5058299;28;19917;-84
2023/07/28 04:48:00;;;;;;;;;;;;;;;24.81;50.21;100125.56;5064004;28;19927;-84
2023/07/28 04:50:25;;;;;;;;;;;;;;;24.85;50.20;100138.16;5061541;28;19955;-86
2023/07/28 04:52:50;;;;;;;;;;;;;;;24.88;50.26;100144.88;5065144;28;19927;-87
2023/07/28 04:55:16;;;;;;;;;;;;;;;24.90;50.20;100132.41;5063497;28;19917;-86
2023/07/28 04:57:41;;;;;;;;;;;;;;;24.90;50.27;100135.13;5067410;28;19916;-86
2023/07/28 05:00:07;;;;;;;;;;;;;;;24.90;50.26;100145.31;5061370;28;19917;-86
2023/07/28 05:02:32;;;;;;;;;;;;;;;24.93;50.42;100139.91;5065287;28;19955;-86
2023/07/28 05:04:57;;;;;;;;;;;;;;;24.98;50.47;100147.84;5067594;28;20038;-86
2023/07/28 05:07:23;;;;;;;;;;;;;;;25.02;50.52;100141.69;5067348;28;19924;-86
2023/07/28 05:09:48;;;;;;;;;;;;;;;25.07;50.58;100138.66;5065820;28;20406;-86
2023/07/28 05:12:13;;;;;;;;;;;;;;;25.14;50.42;100144.28;5066415;28;19916;-86
2023/07/28 05:14:40;;;;;;;;;;;;;;;25.14;50.62;100131.38;5063061;28;19916;-86
2023/07/28 05:17:05;;;;;;;;;;;;;;;25.22;50.26;100137.78;5060211;28;19952;-86
2023/07/28 05:19:31;;;;;;;;;;;;;;;25.22;50.51;100137.78;5070248;28;20292;-85
2023/07/28 05:21:57;;;;;;;;;;;;;;;25.25;50.38;100131.56;5062590;28;20372;-86
2023/07/28 05:24:22;;;;;;;;;;;;;;;25.27;50.61;100138.28;5066532;28;19925;-86
2023/07/28 05:26:48;;;;;;;;;;;;;;;25.32;50.72;100142.69;5063606;28;20023;-86
2023/07/28 05:29:13;;;;;;;;;;;;;;;25.39;50.71;100147.53;5062696;28;19916;-86
2023/07/28 05:31:38;;;;;;;;;;;;;;;25.44;50.54;100148.00;5062717;28;19916;-85
2023/07/28 05:34:04;;;;;;;;;;;;;;;25.48;50.34;100148.88;5062239;28;20015;-87
2023/07/28 05:36:29;;;;;;;;;;;;;;;25.45;50.49;100155.09;5064087;28;19963;-86
2023/07/28 05:38:56;;;;;;;;;;;;;;;25.48;50.21;100154.34;5064235;28;19955;-87
2023/07/28 05:41:21;;;;;;;;;;;;;;;25.44;50.40;100158.97;5061487;28;20030;-87
2023/07/28 05:43:47;;;;;;;;;;;;;;;25.42;50.67;100150.31;5062831;28;20440;-87
2023/07/28 05:46:12;;;;;;;;;;;;;;;25.44;50.64;100152.72;5069699;28;20007;-86
2023/07/28 05:48:38;;;;;;;;;;;;;;;25.45;50.78;100157.81;5066728;28;19951;-86
2023/07/28 05:51:03;;;;;;;;;;;;;;;25.50;50.76;100162.25;5067028;28;19916;-86
2023/07/28 05:53:28;;;;;;;;;;;;;;;25.52;50.81;100160.72;5062321;28;19927;-86
2023/07/28 05:55:53;;;;;;;;;;;;;;;25.55;50.83;100157.25;5061260;28;20025;-86
2023/07/28 05:58:20;;;;;;;;;;;;;;;25.58;50.80;100159.25;5060899;28;20308;-86
2023/07/28 06:00:45;;;;;;;;;;;;;;;25.61;50.67;100158.53;5059371;28;19988;-86
2023/07/28 06:03:13;;;;;;;;;;;;;;;25.64;50.94;100169.94;5058982;28;20083;-87
2023/07/28 06:05:42;;;;;;;;;;;;;;;25.64;50.65;100178.94;5056524;28;19925;-87
2023/07/28 06:08:07;;;;;;;;;;;;;;;25.64;50.73;100180.91;5057821;28;20002;-87
2023/07/28 06:10:33;;;;;;;;;;;;;;;25.62;50.93;100189.50;5057824;28;20458;-87
2023/07/28 06:12:58;;;;;;;;;;;;;;;25.64;50.86;100189.94;5058728;28;19931;-85
2023/07/28 06:15:23;;;;;;;;;;;;;;;25.61;50.83;100179.69;5059294;28;19971;-88
2023/07/28 06:17:49;;;;;;;;;;;;;;;25.60;50.86;100180.84;5056464;28;20050;-87
2023/07/28 06:20:14;;;;;;;;;;;;;;;25.63;50.87;100182.84;5053314;28;19928;-87
2023/07/28 06:22:39;;;;;;;;;;;;;;;25.70;50.82;100185.78;5057259;28;20380;-86
2023/07/28 06:25:05;;;;;;;;;;;;;;;25.76;50.68;100191.75;5056933;28;19920;-87
2023/07/28 06:27:30;;;;;;;;;;;;;;;25.78;50.65;100194.94;5058470;28;20376;-86
2023/07/28 06:29:55;;;;;;;;;;;;;;;25.79;50.88;100194.56;5055842;28;19920;-86
2023/07/28 06:32:23;;;;;;;;;;;;;;;25.74;50.61;100200.34;5054719;28;20322;-86
2023/07/28 06:34:48;;;;;;;;;;;;;;;25.75;50.68;100203.88;5056678;28;20439;-86
2023/07/28 06:37:14;;;;;;;;;;;;;;;25.74;50.67;100200.34;5054071;28;19970;-86
2023/07/28 06:39:39;;;;;;;;;;;;;;;25.77;50.86;100209.81;5053638;28;19928;-87
2023/07/28 06:42:05;;;;;;;;;;;;;;;25.81;50.81;100207.91;5062194;28;20436;-87
2023/07/28 06:44:30;;;;;;;;;;;;;;;25.83;50.56;100211.09;5054838;28;19917;-86
2023/07/28 06:46:56;;;;;;;;;;;;;;;25.78;50.52;100214.13;5056118;28;20280;-87
2023/07/28 06:49:21;;;;;;;;;;;;;;;25.78;50.65;100217.66;5056687;28;20418;-88
2023/07/28 06:51:46;;;;;;;;;;;;;;;25.75;50.39;100210.16;5056358;28;19956;-88
2023/07/28 06:54:12;;;;;;;;;;;;;;;25.79;50.67;100212.97;5056745;28;19921;-87
2023/07/28 06:56:38;;;;;;;;;;;;;;;25.86;50.64;100219.41;5053436;28;20248;-87
2023/07/28 06:59:03;;;;;;;;;;;;;;;25.94;50.40;100208.53;5053568;28;19916;-86
2023/07/28 07:01:28;;;;;;;;;;;;;;;26.02;50.22;100207.50;5057914;28;19971;-87
2023/07/28 07:03:54;;;;;;;;;;;;;;;26.05;50.46;100210.34;5058171;28;20113;-87
2023/07/28 07:06:19;;;;;;;;;;;;;;;26.14;50.29;100210.88;5057689;28;20023;-87
2023/07/28 07:08:44;;;;;;;;;;;;;;;26.23;50.10;100220.84;5058615;28;19964;-87
2023/07/28 07:11:09;;;;;;;;;;;;;;;26.29;50.10;100219.38;5067574;28;19965;-87
2023/07/28 07:13:35;;;;;;;;;;;;;;;26.34;50.17;100232.78;5052114;28;19981;-86
2023/07/28 07:16:00;;;;;;;;;;;;;;;26.44;49.82;100232.22;5055204;28;19920;-87
2023/07/28 07:18:26;;;;;;;;;;;;;;;26.50;49.55;100222.47;5063308;28;20070;-89
2023/07/28 07:20:51;;;;;;;;;;;;;;;26.53;49.57;100234.69;5062676;28;19927;-86
2023/07/28 07:23:16;;;;;;;;;;;;;;;26.51;49.77;100235.06;5062031;28;19924;-88
2023/07/28 07:25:42;;;;;;;;;;;;;;;26.52;49.56;100235.84;5061336;28;19978;-86
2023/07/28 07:28:07;;;;;;;;;;;;;;;26.53;49.46;100230.00;5061538;28;19925;-86
2023/07/28 07:30:33;;;;;;;;;;;;;;;26.53;49.43;100238.22;5056080;28;19916;-86
2023/07/28 07:32:58;;;;;;;;;;;;;;;26.48;49.64;100239.34;5063103;28;19971;-87
2023/07/28 07:35:24;;;;;;;;;;;;;;;26.45;49.79;100239.28;5056405;28;20545;-86
2023/07/28 07:37:49;;;;;;;;;;;;;;;26.46;49.97;100244.41;5057792;28;20253;-87
2023/07/28 07:40:15;;;;;;;;;;;;;;;26.47;49.86;100243.25;5057918;28;19923;-87
2023/07/28 07:42:46;;;;;;;;;;;;;;;26.45;50.02;100245.56;5061956;28;20251;-86
2023/07/28 07:45:12;;;;;;;;;;;;;;;26.51;50.11;100243.31;5056712;28;19928;-86
2023/07/28 07:47:39;;;;;;;;;;;;;;;26.62;50.23;100254.47;5059324;28;19924;-87
2023/07/28 07:50:05;;;;;;;;;;;;;;;26.77;49.99;100264.53;5060427;28;20010;-87
2023/07/28 07:52:30;;;;;;;;;;;;;;;26.93;49.49;100264.34;5057870;28;19970;-88
2023/07/28 07:54:55;;;;;;;;;;;;;;;27.00;49.21;100264.50;5061643;28;19924;-86
2023/07/28 07:57:21;;;;;;;;;;;;;;;27.09;49.54;100273.28;5060397;28;20364;-87
2023/07/28 07:59:46;;;;;;;;;;;;;;;27.20;49.23;100274.22;5053261;28;19917;-88
2023/07/28 08:02:11;;;;;;;;;;;;;;;27.28;49.05;100281.41;5057760;28;20338;-87
2023/07/28 08:04:37;;;;;;;;;;;;;;;27.30;48.98;100286.56;5055616;28;20377;-86
2023/07/28 08:07:04;;;;;;;;;;;;;;;27.35;49.17;100289.75;5057425;28;19924;-87
2023/07/28 08:09:29;;;;;;;;;;;;;;;27.47;49.03;100279.69;5054495;28;19917;-86
2023/07/28 08:11:55;;;;;;;;;;;;;;;27.57;48.83;100292.78;5059786;28;19943;-86
2023/07/28 08:14:20;;;;;;;;;;;;;;;27.63;48.60;100281.09;5052788;28;19924;-86
2023/07/28 08:16:45;;;;;;;;;;;;;;;27.63;47.73;100292.09;5062500;28;19932;-86
2023/07/28 08:19:11;;;;;;;;;;;;;;;27.60;48.41;100294.78;5061764;28;20439;-86
2023/07/28 08:21:36;;;;;;;;;;;;;;;27.61;48.38;100294.41;5054872;28;20408;-85
2023/07/28 08:24:03;;;;;;;;;;;;;;;27.59;48.22;100301.47;5061113;28;19921;-84
2023/07/28 08:26:29;;;;;;;;;;;;;;;27.59;48.33;100296.75;5063360;28;19924;-86
2023/07/28 08:28:54;;;;;;;;;;;;;;;27.55;48.15;100295.91;5058522;28;19959;-85
2023/07/28 08:31:19;;;;;;;;;;;;;;;27.55;48.35;100292.38;5065536;28;20411;-86
2023/07/28 08:33:45;;;;;;;;;;;;;;;27.58;48.18;100302.63;5060755;28;19924;-85
2023/07/28 08:36:10;;;;;;;;;;;;;;;27.47;47.77;100308.00;5061478;28;20490;-85
2023/07/28 08:38:35;;;;;;;;;;;;;;;27.50;48.00;100306.47;5057118;28;19932;-86
2023/07/28 08:41:01;;;;;;;;;;;;;;;27.53;47.84;100305.72;5060587;28;19921;-85
2023/07/28 08:43:27;;;;;;;;;;;;;;;27.55;47.99;100306.13;5063484;28;19925;-85
2023/07/28 08:45:53;;;;;;;;;;;;;;;27.63;47.93;100308.63;5059392;28;19927;-86
2023/07/28 08:48:19;;;;;;;;;;;;;;;27.61;47.92;100321.13;5058292;28;19935;-85
2023/07/28 08:50:44;;;;;;;;;;;;;;;27.63;47.60;100318.84;5056926;28;19920;-87
2023/07/28 08:53:09;;;;;;;;;;;;;;;27.68;47.61;100321.28;5058473;28;19921;-86
2023/07/28 08:55:35;;;;;;;;;;;;;;;27.73;47.36;100322.91;5056932;28;20407;-86
2023/07/28 08:58:17;;;;;;;;;;;;;;;27.69;47.22;100322.88;5059368;28;19944;-85
2023/07/28 09:00:42;;;;;;;;;;;;;;;27.61;47.43;100329.41;5061961;28;20643;-86
2023/07/28 09:03:11;;;;;;;;;;;;;;;27.52;47.74;100326.94;5063101;28;19952;-86
2023/07/28 09:05:37;;;;;;;;;;;;;;;27.54;47.63;100335.59;5063797;28;20079;-87
2023/07/28 09:08:03;;;;;;;;;;;;;;;27.56;47.63;100335.22;5063562;28;19971;-85
2023/07/28 09:10:41;;;;;;;;;;;;;;;27.64;47.67;100331.44;5063538;28;19959;-87
2023/07/28 09:13:09;;;;;;;;;;;;;;;27.89;47.82;100338.06;5059482;28;20039;-86
2023/07/28 09:15:35;;;;;;;;;;;;;;;28.13;46.69;100333.19;5064648;28;19970;-86
2023/07/28 09:18:00;;;;;;;;;;;;;;;28.30;46.63;100335.38;5062724;28;19916;-86
2023/07/28 09:20:33;;;;;;;;;;;;;;;28.47;46.07;100340.28;5064936;28;19916;-87
2023/07/28 09:22:58;;;;;;;;;;;;;;;28.61;45.89;100336.88;5061676;28;20007;-86
2023/07/28 09:25:23;;;;;;;;;;;;;;;28.83;45.83;100335.88;5062770;28;20349;-86
2023/07/28 09:27:52;;;;;;;;;;;;;;;29.04;44.92;100332.53;5063318;28;21089;-86
2023/07/28 09:30:18;;;;;;;;;;;;;;;29.20;44.94;100332.25;5065114;28;19931;-87
2023/07/28 09:32:46;;;;;;;;;;;;;;;29.26;45.10;100341.72;5061638;28;19921;-86
2023/07/28 09:35:13;;;;;;;;;;;;;;;29.16;45.13;100337.75;5064326;28;19921;-87
2023/07/28 09:37:39;;;;;;;;;;;;;;;29.21;45.12;100344.84;5061737;28;20300;-86
2023/07/28 09:40:09;;;;;;;;;;;;;;;29.18;45.09;100337.34;5060284;28;19927;-85
2023/07/28 09:42:35;;;;;;;;;;;;;;;29.19;44.71;100348.00;5060316;28;19921;-86
2023/07/28 09:45:01;;;;;;;;;;;;;;;29.16;44.50;100342.47;5064242;28;20314;-86
2023/07/28 09:47:27;;;;;;;;;;;;;;;29.19;44.54;100341.69;5063286;28;20205;-85
2023/07/28 09:49:53;;;;;;;;;;;;;;;29.36;44.86;100349.28;5064023;28;19916;-87
2023/07/28 09:52:19;;;;;;;;;;;;;;;29.54;44.48;100352.19;5062794;28;19946;-88
2023/07/28 09:54:48;;;;;;;;;;;;;;;29.72;43.91;100347.56;5062916;28;19920;-85
2023/07/28 09:57:18;;;;;;;;;;;;;;;29.97;43.74;100352.38;5061757;28;19924;-85
2023/07/28 09:59:45;;;;;;;;;;;;;;;30.16;43.19;100360.38;5060766;28;19920;-86
2023/07/28 10:02:10;;;;;;;;;;;;;;;30.28;43.17;100361.97;5059857;28;20420;-85
2023/07/28 10:04:35;;;;;;;;;;;;;;;30.25;41.33;100360.78;5064876;28;19917;-85
2023/07/28 10:07:01;;;;;;;;;;;;;;;30.29;43.23;100358.03;5061701;28;20472;-85
2023/07/28 10:09:28;;;;;;;;;;;;;;;30.38;42.56;100361.22;5062221;28;19916;-86
2023/07/28 10:11:53;;;;;;;;;;;;;;;30.41;42.62;100359.66;5058928;28;20033;-85
2023/07/28 10:14:37;;;;;;;;;;;;;;;30.47;43.09;100360.84;5058428;28;20105;-85
2023/07/28 10:17:04;;;;;;;;;;;;;;;30.54;43.12;100361.66;5064858;28;20308;-85
2023/07/28 10:19:29;;;;;;;;;;;;;;;30.60;42.64;100359.28;5064722;28;19974;-85
2023/07/28 10:22:02;;;;;;;;;;;;;;;30.59;42.30;100368.75;5062608;28;20372;-85
2023/07/28 10:24:45;;;;;;;;;;;;;;;30.54;42.19;100369.94;5065876;28;19916;-85
2023/07/28 10:27:11;;;;;;;;;;;;;;;30.46;42.12;100368.34;5059189;28;20007;-85
2023/07/28 10:29:39;;;;;;;;;;;;;;;30.43;42.55;100371.91;5061291;28;20356;-85
2023/07/28 10:32:04;;;;;;;;;;;;;;;30.43;42.21;100363.59;5062424;28;20026;-85
2023/07/28 10:34:29;;;;;;;;;;;;;;;30.42;42.29;100369.53;5063452;28;20011;-86
2023/07/28 10:36:58;;;;;;;;;;;;;;;30.40;42.06;100377.41;5062348;28;20066;-85
2023/07/28 10:39:24;;;;;;;;;;;;;;;30.54;42.18;100378.25;5066589;28;20503;-85
2023/07/28 10:42:06;;;;;;;;;;;;;;;30.76;42.17;100379.09;5064708;28;19965;-85
2023/07/28 10:44:32;;;;;;;;;;;;;;;30.89;41.28;100379.50;5064673;28;19999;-85
2023/07/28 10:46:57;;;;;;;;;;;;;;;30.82;40.84;100385.78;5062215;28;19978;-86
2023/07/28 10:49:24;;;;;;;;;;;;;;;30.75;41.41;100385.81;5065592;28;19924;-85
2023/07/28 10:51:49;;;;;;;;;;;;;;;30.70;41.20;100388.94;5065967;28;19924;-85
2023/07/28 10:54:19;;;;;;;;;;;;;;;30.61;41.36;100389.34;5063702;28;19917;-85
2023/07/28 10:56:45;;;;;;;;;;;;;;;30.49;40.62;100394.41;5064783;28;19916;-85
2023/07/28 10:59:10;;;;;;;;;;;;;;;30.43;41.34;100394.00;5058249;28;19932;-85
2023/07/28 11:01:37;;;;;;;;;;;;;;;30.44;41.63;100395.59;5057064;28;20308;-86
2023/07/28 11:04:08;;;;;;;;;;;;;;;30.60;40.72;100398.00;5059081;28;19925;-86
2023/07/28 11:06:34;;;;;;;;;;;;;;;30.71;41.39;100393.31;5059564;28;19917;-86
2023/07/28 11:08:59;;;;;;;;;;;;;;;30.75;41.10;100399.63;5059165;28;19920;-86
2023/07/28 11:11:25;;;;;;;;;;;;;;;30.88;40.82;100395.31;5063259;28;20396;-86
2023/07/28 11:13:50;;;;;;;;;;;;;;;30.90;40.64;100395.69;5056219;28;19917;-85
2023/07/28 11:16:15;;;;;;;;;;;;;;;30.84;40.81;100396.47;5062537;28;19921;-85
2023/07/28 11:18:41;;;;;;;;;;;;;;;30.82;40.13;100402.38;5058790;28;19921;-87
2023/07/28 11:21:06;;;;;;;;;;;;;;;30.94;40.65;100401.22;5059826;28;19916;-86
2023/07/28 11:23:32;;;;;;;;;;;;;;;31.11;40.70;100402.41;5060428;28;20293;-86
2023/07/28 11:25:58;;;;;;;;;;;;;;;31.27;40.17;100403.63;5054044;28;19948;-85
2023/07/28 11:28:24;;;;;;;;;;;;;;;31.31;39.63;100398.06;5062249;28;20503;-85
2023/07/28 11:30:50;;;;;;;;;;;;;;;31.27;39.56;100395.31;5056923;28;20812;-85
2023/07/28 11:33:15;;;;;;;;;;;;;;;31.25;39.35;100405.22;5061350;28;19999;-85
2023/07/28 11:35:43;;;;;;;;;;;;;;;31.31;39.22;100403.59;5058766;28;19927;-85
2023/07/28 11:38:09;;;;;;;;;;;;;;;31.35;39.83;100406.38;5058448;28;19967;-86
2023/07/28 11:40:35;;;;;;;;;;;;;;;31.27;39.69;100402.81;5058028;28;19955;-85
2023/07/28 11:43:00;;;;;;;;;;;;;;;31.33;39.62;100409.53;5065326;28;20439;-85
2023/07/28 11:45:25;;;;;;;;;;;;;;;31.60;39.33;100411.84;5060850;28;19924;-85
2023/07/28 11:48:02;;;;;;;;;;;;;;;31.67;38.71;100418.19;5057014;28;20399;-86
2023/07/28 11:50:28;;;;;;;;;;;;;;;31.65;38.63;100411.47;5054792;28;19916;-87
2023/07/28 11:52:56;;;;;;;;;;;;;;;31.53;38.79;100416.22;5056734;28;19990;-85
2023/07/28 11:55:21;;;;;;;;;;;;;;;31.41;39.22;100436.00;5064349;28;20011;-86
2023/07/28 11:57:47;;;;;;;;;;;;;;;31.31;38.78;100428.53;5063898;28;20004;-86
2023/07/28 12:00:16;;;;;;;;;;;;;;;31.25;39.38;100436.44;5061972;28;19920;-86
2023/07/28 12:02:42;;;;;;;;;;;;;;;31.21;39.14;100441.16;5060161;28;19995;-85
2023/07/28 12:05:14;;;;;;;;;;;;;;;31.22;39.21;100441.94;5055263;28;20504;-84
2023/07/28 12:07:40;;;;;;;;;;;;;;;31.26;38.90;100451.84;5068782;28;19989;-85
2023/07/28 12:10:09;;;;;;;;;;;;;;;31.30;39.22;100451.06;5069755;28;20004;-85
2023/07/28 12:12:43;;;;;;;;;;;;;;;31.27;39.25;100460.94;5074443;28;19962;-84
2023/07/28 12:15:37;;;;;;;;;;;;;;;31.24;38.99;100465.31;5061362;28;20342;-85
2023/07/28 12:18:06;;;;;;;;;;;;;;;31.42;38.74;100459.75;5051677;28;20015;-86
2023/07/28 12:20:38;;;;;;;;;;;;;;;31.51;38.37;100460.13;5056886;28;19931;-85
2023/07/28 12:23:04;;;;;;;;;;;;;;;31.68;38.11;100479.91;5066639;28;20049;-85
2023/07/28 12:25:30;;;;;;;;;;;;;;;31.67;38.10;100472.78;5052829;28;20296;-86
2023/07/28 12:27:55;;;;;;;;;;;;;;;31.74;38.07;100478.31;5064158;28;19928;-85
2023/07/28 12:30:21;;;;;;;;;;;;;;;31.76;37.95;100478.72;5060189;28;20011;-86